sensor_id;sensor_type;location;lat;lon;timestamp;temperature;humidity
2226;DHT22;1119;48.288;8.726;2022-09-28T00:01:42;8.40;99.90
2226;DHT22;1119;48.288;8.726;2022-09-28T00:04:11;8.60;99.90
2226;DHT22;1119;48.288;8.726;2022-09-28T00:06:39;8.50;99.90
2226;DHT22;1119;48.288;8.726;2022-09-28T00:09:06;8.50;99.90
2226;DHT22;1119;48.288;8.726;2022-09-28T00:11:33;8.50;99.90
2226;DHT22;1119;48.288;8.726;2022-09-28T00:14:01;8.50;99.90
2226;DHT22;1119;48.288;8.726;2022-09-28T00:16:33;8.60;99.90
2226;DHT22;1119;48.288;8.726;2022-09-28T00:19:03;8.60;99.90
2226;DHT22;1119;48.288;8.726;2022-09-28T00:21:34;8.70;99.90
2226;DHT22;1119;48.288;8.726;2022-09-28T00:24:03;8.70;99.90
2226;DHT22;1119;48.288;8.726;2022-09-28T00:26:43;8.70;99.90
2226;DHT22;1119;48.288;8.726;2022-09-28T00:29:20;8.80;99.90
2226;DHT22;1119;48.288;8.726;2022-09-28T00:31:51;8.60;99.90
2226;DHT22;1119;48.288;8.726;2022-09-28T00:34:19;8.60;99.90
2226;DHT22;1119;48.288;8.726;2022-09-28T00:36:48;8.60;99.90
2226;DHT22;1119;48.288;8.726;2022-09-28T00:39:16;8.80;99.90
2226;DHT22;1119;48.288;8.726;2022-09-28T00:41:44;8.60;99.90
2226;DHT22;1119;48.288;8.726;2022-09-28T00:44:38;8.70;99.90
2226;DHT22;1119;48.288;8.726;2022-09-28T00:47:14;8.60;99.90
2226;DHT22;1119;48.288;8.726;2022-09-28T00:49:46;8.70;99.90
2226;DHT22;1119;48.288;8.726;2022-09-28T00:52:20;8.80;99.90
2226;DHT22;1119;48.288;8.726;2022-09-28T00:54:49;8.70;99.90
2226;DHT22;1119;48.288;8.726;2022-09-28T00:57:18;8.70;99.90
2226;DHT22;1119;48.288;8.726;2022-09-28T00:59:45;8.90;99.90
2226;DHT22;1119;48.288;8.726;2022-09-28T01:02:14;8.80;99.90
2226;DHT22;1119;48.288;8.726;2022-09-28T01:04:41;8.80;99.90
2226;DHT22;1119;48.288;8.726;2022-09-28T01:07:08;8.90;99.90
2226;DHT22;1119;48.288;8.726;2022-09-28T01:09:38;8.80;99.90
2226;DHT22;1119;48.288;8.726;2022-09-28T01:12:07;8.80;99.90
2226;DHT22;1119;48.288;8.726;2022-09-28T01:14:34;8.80;99.90
2226;DHT22;1119;48.288;8.726;2022-09-28T01:17:06;8.80;99.90
2226;DHT22;1119;48.288;8.726;2022-09-28T01:20:21;8.90;99.90
2226;DHT22;1119;48.288;8.726;2022-09-28T01:23:31;8.80;99.90
2226;DHT22;1119;48.288;8.726;2022-09-28T01:26:40;8.80;99.90
2226;DHT22;1119;48.288;8.726;2022-09-28T01:29:18;8.80;99.90
2226;DHT22;1119;48.288;8.726;2022-09-28T01:32:11;8.80;99.90
2226;DHT22;1119;48.288;8.726;2022-09-28T01:34:53;8.80;99.90
2226;DHT22;1119;48.288;8.726;2022-09-28T01:37:28;8.80;99.90
2226;DHT22;1119;48.288;8.726;2022-09-28T01:40:00;8.80;99.90
2226;DHT22;1119;48.288;8.726;2022-09-28T01:42:32;8.80;99.90
2226;DHT22;1119;48.288;8.726;2022-09-28T01:45:06;8.80;99.90
2226;DHT22;1119;48.288;8.726;2022-09-28T01:47:38;8.80;99.90
2226;DHT22;1119;48.288;8.726;2022-09-28T01:50:10;8.80;99.90
2226;DHT22;1119;48.288;8.726;2022-09-28T01:52:44;8.90;99.90
2226;DHT22;1119;48.288;8.726;2022-09-28T01:55:22;8.90;99.90
2226;DHT22;1119;48.288;8.726;2022-09-28T01:57:56;8.80;99.90
2226;DHT22;1119;48.288;8.726;2022-09-28T02:00:25;9.00;99.90
2226;DHT22;1119;48.288;8.726;2022-09-28T02:02:59;8.90;99.90
2226;DHT22;1119;48.288;8.726;2022-09-28T02:05:38;8.90;99.90
2226;DHT22;1119;48.288;8.726;2022-09-28T02:08:08;8.90;99.90
2226;DHT22;1119;48.288;8.726;2022-09-28T02:10:42;8.90;99.90
2226;DHT22;1119;48.288;8.726;2022-09-28T02:13:16;9.00;99.90
2226;DHT22;1119;48.288;8.726;2022-09-28T02:15:50;8.90;99.90
2226;DHT22;1119;48.288;8.726;2022-09-28T02:18:18;8.90;99.90
2226;DHT22;1119;48.288;8.726;2022-09-28T02:20:50;8.90;99.90
2226;DHT22;1119;48.288;8.726;2022-09-28T02:23:20;8.90;99.90
2226;DHT22;1119;48.288;8.726;2022-09-28T02:25:52;8.90;99.90
2226;DHT22;1119;48.288;8.726;2022-09-28T02:28:25;9.00;99.90
2226;DHT22;1119;48.288;8.726;2022-09-28T02:30:52;9.00;99.90
2226;DHT22;1119;48.288;8.726;2022-09-28T02:33:23;9.00;99.90
2226;DHT22;1119;48.288;8.726;2022-09-28T02:35:52;9.10;99.90
2226;DHT22;1119;48.288;8.726;2022-09-28T02:38:22;9.00;99.90
2226;DHT22;1119;48.288;8.726;2022-09-28T02:40:56;9.00;99.90
2226;DHT22;1119;48.288;8.726;2022-09-28T02:43:37;9.10;99.90
2226;DHT22;1119;48.288;8.726;2022-09-28T02:46:16;9.00;99.90
2226;DHT22;1119;48.288;8.726;2022-09-28T02:49:03;9.00;99.90
2226;DHT22;1119;48.288;8.726;2022-09-28T02:51:39;8.90;99.90
2226;DHT22;1119;48.288;8.726;2022-09-28T02:54:30;8.90;99.90
2226;DHT22;1119;48.288;8.726;2022-09-28T02:57:11;9.10;99.90
2226;DHT22;1119;48.288;8.726;2022-09-28T02:59:49;8.90;99.90
2226;DHT22;1119;48.288;8.726;2022-09-28T03:02:24;8.80;99.90
2226;DHT22;1119;48.288;8.726;2022-09-28T03:05:11;8.80;99.90
2226;DHT22;1119;48.288;8.726;2022-09-28T03:07:45;8.80;99.90
2226;DHT22;1119;48.288;8.726;2022-09-28T03:10:22;8.80;99.90
2226;DHT22;1119;48.288;8.726;2022-09-28T03:12:52;8.80;99.90
2226;DHT22;1119;48.288;8.726;2022-09-28T03:15:23;8.80;99.90
2226;DHT22;1119;48.288;8.726;2022-09-28T03:17:53;8.80;99.90
2226;DHT22;1119;48.288;8.726;2022-09-28T03:20:21;8.80;99.90
2226;DHT22;1119;48.288;8.726;2022-09-28T03:22:49;8.80;99.90
2226;DHT22;1119;48.288;8.726;2022-09-28T03:25:16;8.80;99.90
2226;DHT22;1119;48.288;8.726;2022-09-28T03:27:43;8.80;99.90
2226;DHT22;1119;48.288;8.726;2022-09-28T03:30:12;8.80;99.90
2226;DHT22;1119;48.288;8.726;2022-09-28T03:32:44;8.80;99.90
2226;DHT22;1119;48.288;8.726;2022-09-28T03:35:12;8.80;99.90
2226;DHT22;1119;48.288;8.726;2022-09-28T03:37:39;8.80;99.90
2226;DHT22;1119;48.288;8.726;2022-09-28T03:40:07;8.80;99.90
2226;DHT22;1119;48.288;8.726;2022-09-28T03:42:35;8.80;99.90
2226;DHT22;1119;48.288;8.726;2022-09-28T03:45:18;8.80;99.90
2226;DHT22;1119;48.288;8.726;2022-09-28T03:47:49;8.80;99.90
2226;DHT22;1119;48.288;8.726;2022-09-28T03:50:17;8.80;99.90
2226;DHT22;1119;48.288;8.726;2022-09-28T03:52:44;8.80;99.90
2226;DHT22;1119;48.288;8.726;2022-09-28T03:55:11;8.80;99.90
2226;DHT22;1119;48.288;8.726;2022-09-28T03:57:39;8.70;99.90
2226;DHT22;1119;48.288;8.726;2022-09-28T04:00:07;8.90;99.90
2226;DHT22;1119;48.288;8.726;2022-09-28T04:02:44;8.80;99.90
2226;DHT22;1119;48.288;8.726;2022-09-28T04:05:12;8.80;99.90
2226;DHT22;1119;48.288;8.726;2022-09-28T04:07:40;8.80;99.90
2226;DHT22;1119;48.288;8.726;2022-09-28T04:10:08;8.80;99.90
2226;DHT22;1119;48.288;8.726;2022-09-28T04:12:35;8.80;99.90
2226;DHT22;1119;48.288;8.726;2022-09-28T04:15:04;8.80;99.90
2226;DHT22;1119;48.288;8.726;2022-09-28T04:17:32;8.80;99.90
2226;DHT22;1119;48.288;8.726;2022-09-28T04:19:59;8.80;99.90
2226;DHT22;1119;48.288;8.726;2022-09-28T04:22:48;8.80;99.90
2226;DHT22;1119;48.288;8.726;2022-09-28T04:25:15;8.80;99.90
2226;DHT22;1119;48.288;8.726;2022-09-28T04:27:42;8.80;99.90
2226;DHT22;1119;48.288;8.726;2022-09-28T04:30:28;8.80;99.90
2226;DHT22;1119;48.288;8.726;2022-09-28T04:32:55;9.00;99.90
2226;DHT22;1119;48.288;8.726;2022-09-28T04:35:22;8.90;99.90
2226;DHT22;1119;48.288;8.726;2022-09-28T04:37:51;8.80;99.90
2226;DHT22;1119;48.288;8.726;2022-09-28T04:40:21;8.90;99.90
2226;DHT22;1119;48.288;8.726;2022-09-28T04:43:56;8.90;99.90
2226;DHT22;1119;48.288;8.726;2022-09-28T04:47:17;8.90;99.90
2226;DHT22;1119;48.288;8.726;2022-09-28T05:00:25;8.90;99.90
2226;DHT22;1119;48.288;8.726;2022-09-28T05:03:17;8.90;99.90
2226;DHT22;1119;48.288;8.726;2022-09-28T05:06:34;9.00;99.90
2226;DHT22;1119;48.288;8.726;2022-09-28T05:10:23;9.00;99.90
2226;DHT22;1119;48.288;8.726;2022-09-28T05:14:01;9.00;99.90
2226;DHT22;1119;48.288;8.726;2022-09-28T05:17:28;9.10;99.90
2226;DHT22;1119;48.288;8.726;2022-09-28T05:20:22;9.10;99.90
2226;DHT22;1119;48.288;8.726;2022-09-28T05:22:50;9.10;99.90
2226;DHT22;1119;48.288;8.726;2022-09-28T05:25:17;9.10;99.90
2226;DHT22;1119;48.288;8.726;2022-09-28T05:28:04;9.10;99.90
2226;DHT22;1119;48.288;8.726;2022-09-28T05:31:07;9.10;99.90
2226;DHT22;1119;48.288;8.726;2022-09-28T05:33:52;9.10;99.90
2226;DHT22;1119;48.288;8.726;2022-09-28T05:36:19;9.10;99.90
2226;DHT22;1119;48.288;8.726;2022-09-28T05:38:46;9.10;99.90
2226;DHT22;1119;48.288;8.726;2022-09-28T05:41:14;9.10;99.90
2226;DHT22;1119;48.288;8.726;2022-09-28T05:43:41;9.10;99.90
2226;DHT22;1119;48.288;8.726;2022-09-28T05:46:08;9.10;99.90
2226;DHT22;1119;48.288;8.726;2022-09-28T05:48:39;9.10;99.90
2226;DHT22;1119;48.288;8.726;2022-09-28T05:51:07;9.20;99.90
2226;DHT22;1119;48.288;8.726;2022-09-28T05:53:35;9.20;99.90
2226;DHT22;1119;48.288;8.726;2022-09-28T05:56:03;9.30;99.90
2226;DHT22;1119;48.288;8.726;2022-09-28T05:58:33;9.30;99.90
2226;DHT22;1119;48.288;8.726;2022-09-28T06:01:02;9.30;99.90
2226;DHT22;1119;48.288;8.726;2022-09-28T06:03:32;9.30;99.90
2226;DHT22;1119;48.288;8.726;2022-09-28T06:06:01;9.20;99.90
2226;DHT22;1119;48.288;8.726;2022-09-28T06:08:33;9.20;99.90
2226;DHT22;1119;48.288;8.726;2022-09-28T06:11:31;9.20;99.90
2226;DHT22;1119;48.288;8.726;2022-09-28T06:14:14;9.20;99.90
2226;DHT22;1119;48.288;8.726;2022-09-28T06:16:57;9.10;99.90
2226;DHT22;1119;48.288;8.726;2022-09-28T06:19:26;9.10;99.90
2226;DHT22;1119;48.288;8.726;2022-09-28T06:22:07;9.10;99.90
2226;DHT22;1119;48.288;8.726;2022-09-28T06:24:51;9.00;99.90
2226;DHT22;1119;48.288;8.726;2022-09-28T06:27:26;9.00;99.90
2226;DHT22;1119;48.288;8.726;2022-09-28T06:29:56;9.00;99.90
2226;DHT22;1119;48.288;8.726;2022-09-28T06:32:28;9.00;99.90
2226;DHT22;1119;48.288;8.726;2022-09-28T06:34:58;9.00;99.90
2226;DHT22;1119;48.288;8.726;2022-09-28T06:37:28;9.10;99.90
2226;DHT22;1119;48.288;8.726;2022-09-28T06:40:02;9.50;99.90
2226;DHT22;1119;48.288;8.726;2022-09-28T06:42:31;9.20;99.90
2226;DHT22;1119;48.288;8.726;2022-09-28T06:45:19;9.20;99.90
2226;DHT22;1119;48.288;8.726;2022-09-28T06:48:12;9.30;99.90
2226;DHT22;1119;48.288;8.726;2022-09-28T06:50:42;9.30;99.90
2226;DHT22;1119;48.288;8.726;2022-09-28T06:53:24;9.30;99.90
2226;DHT22;1119;48.288;8.726;2022-09-28T06:56:01;9.40;99.90
2226;DHT22;1119;48.288;8.726;2022-09-28T06:58:30;9.40;99.90
2226;DHT22;1119;48.288;8.726;2022-09-28T07:01:01;8.90;99.90
2226;DHT22;1119;48.288;8.726;2022-09-28T07:03:38;9.50;99.90
2226;DHT22;1119;48.288;8.726;2022-09-28T07:06:32;9.60;99.90
2226;DHT22;1119;48.288;8.726;2022-09-28T07:09:28;9.60;99.90
2226;DHT22;1119;48.288;8.726;2022-09-28T07:12:15;9.70;99.90
2226;DHT22;1119;48.288;8.726;2022-09-28T07:14:49;9.80;99.90
2226;DHT22;1119;48.288;8.726;2022-09-28T07:17:21;9.90;99.90
2226;DHT22;1119;48.288;8.726;2022-09-28T07:19:48;9.90;99.90
2226;DHT22;1119;48.288;8.726;2022-09-28T07:22:18;9.90;99.90
2226;DHT22;1119;48.288;8.726;2022-09-28T07:24:46;9.90;99.90
2226;DHT22;1119;48.288;8.726;2022-09-28T07:27:44;9.90;99.90
2226;DHT22;1119;48.288;8.726;2022-09-28T07:30:16;9.90;99.90
2226;DHT22;1119;48.288;8.726;2022-09-28T07:33:14;9.80;99.90
2226;DHT22;1119;48.288;8.726;2022-09-28T07:35:51;9.80;99.90
2226;DHT22;1119;48.288;8.726;2022-09-28T07:38:20;9.80;99.90
2226;DHT22;1119;48.288;8.726;2022-09-28T07:40:48;9.80;99.90
2226;DHT22;1119;48.288;8.726;2022-09-28T07:43:35;9.80;99.90
2226;DHT22;1119;48.288;8.726;2022-09-28T07:46:04;9.80;99.90
2226;DHT22;1119;48.288;8.726;2022-09-28T07:48:41;9.90;99.90
2226;DHT22;1119;48.288;8.726;2022-09-28T07:51:32;10.00;99.90
2226;DHT22;1119;48.288;8.726;2022-09-28T07:54:34;10.00;99.90
2226;DHT22;1119;48.288;8.726;2022-09-28T07:57:06;10.10;99.90
2226;DHT22;1119;48.288;8.726;2022-09-28T07:59:53;10.20;99.90
2226;DHT22;1119;48.288;8.726;2022-09-28T08:02:39;10.30;99.90
2226;DHT22;1119;48.288;8.726;2022-09-28T08:05:07;10.40;99.90
2226;DHT22;1119;48.288;8.726;2022-09-28T08:07:35;10.40;99.90
2226;DHT22;1119;48.288;8.726;2022-09-28T08:10:06;10.40;99.90
2226;DHT22;1119;48.288;8.726;2022-09-28T08:12:53;10.40;99.90
2226;DHT22;1119;48.288;8.726;2022-09-28T08:15:40;10.60;99.90
2226;DHT22;1119;48.288;8.726;2022-09-28T08:18:26;10.60;99.90
2226;DHT22;1119;48.288;8.726;2022-09-28T08:20:53;10.70;99.90
2226;DHT22;1119;48.288;8.726;2022-09-28T08:23:38;10.80;99.90
2226;DHT22;1119;48.288;8.726;2022-09-28T08:26:06;10.90;99.90
2226;DHT22;1119;48.288;8.726;2022-09-28T08:28:34;10.90;99.90
2226;DHT22;1119;48.288;8.726;2022-09-28T08:31:11;10.70;99.90
2226;DHT22;1119;48.288;8.726;2022-09-28T08:33:59;10.60;99.90
2226;DHT22;1119;48.288;8.726;2022-09-28T08:37:00;10.50;99.90
2226;DHT22;1119;48.288;8.726;2022-09-28T08:39:45;10.40;99.90
2226;DHT22;1119;48.288;8.726;2022-09-28T08:42:37;10.40;99.90
2226;DHT22;1119;48.288;8.726;2022-09-28T08:45:30;10.30;99.90
2226;DHT22;1119;48.288;8.726;2022-09-28T08:48:18;10.20;99.90
2226;DHT22;1119;48.288;8.726;2022-09-28T08:51:15;10.20;99.90
2226;DHT22;1119;48.288;8.726;2022-09-28T08:54:15;10.30;99.90
2226;DHT22;1119;48.288;8.726;2022-09-28T08:56:56;10.30;99.90
2226;DHT22;1119;48.288;8.726;2022-09-28T08:59:34;10.30;99.90
2226;DHT22;1119;48.288;8.726;2022-09-28T09:02:17;10.40;99.90
2226;DHT22;1119;48.288;8.726;2022-09-28T09:04:48;10.40;99.90
2226;DHT22;1119;48.288;8.726;2022-09-28T09:07:55;10.30;99.90
2226;DHT22;1119;48.288;8.726;2022-09-28T09:10:47;10.20;99.90
2226;DHT22;1119;48.288;8.726;2022-09-28T09:13:37;10.00;99.90
2226;DHT22;1119;48.288;8.726;2022-09-28T09:16:21;9.90;99.90
2226;DHT22;1119;48.288;8.726;2022-09-28T09:19:08;9.80;99.90
2226;DHT22;1119;48.288;8.726;2022-09-28T09:22:13;9.80;99.90
2226;DHT22;1119;48.288;8.726;2022-09-28T09:24:48;9.80;99.90
2226;DHT22;1119;48.288;8.726;2022-09-28T09:27:31;9.80;99.90
2226;DHT22;1119;48.288;8.726;2022-09-28T09:30:08;9.80;99.90
2226;DHT22;1119;48.288;8.726;2022-09-28T09:32:57;9.80;99.90
2226;DHT22;1119;48.288;8.726;2022-09-28T09:35:53;9.70;99.90
2226;DHT22;1119;48.288;8.726;2022-09-28T09:38:52;9.70;99.90
2226;DHT22;1119;48.288;8.726;2022-09-28T09:41:56;9.70;99.90
2226;DHT22;1119;48.288;8.726;2022-09-28T09:45:06;9.60;99.90
2226;DHT22;1119;48.288;8.726;2022-09-28T09:47:59;9.60;99.90
2226;DHT22;1119;48.288;8.726;2022-09-28T09:50:32;9.60;99.90
2226;DHT22;1119;48.288;8.726;2022-09-28T09:53:09;9.60;99.90
2226;DHT22;1119;48.288;8.726;2022-09-28T09:55:45;9.70;99.90
2226;DHT22;1119;48.288;8.726;2022-09-28T09:58:41;9.70;99.90
2226;DHT22;1119;48.288;8.726;2022-09-28T10:01:26;9.80;99.90
2226;DHT22;1119;48.288;8.726;2022-09-28T10:04:31;9.90;99.90
2226;DHT22;1119;48.288;8.726;2022-09-28T10:07:14;10.00;99.90
2226;DHT22;1119;48.288;8.726;2022-09-28T10:09:48;10.00;99.90
2226;DHT22;1119;48.288;8.726;2022-09-28T10:12:37;10.10;99.90
2226;DHT22;1119;48.288;8.726;2022-09-28T10:15:06;10.20;99.90
2226;DHT22;1119;48.288;8.726;2022-09-28T10:17:46;10.30;99.90
2226;DHT22;1119;48.288;8.726;2022-09-28T10:20:36;10.40;99.90
2226;DHT22;1119;48.288;8.726;2022-09-28T10:23:19;10.40;99.90
2226;DHT22;1119;48.288;8.726;2022-09-28T10:25:50;10.50;99.90
2226;DHT22;1119;48.288;8.726;2022-09-28T10:28:25;10.60;99.90
2226;DHT22;1119;48.288;8.726;2022-09-28T10:30:59;10.60;99.90
2226;DHT22;1119;48.288;8.726;2022-09-28T10:33:30;10.60;99.90
2226;DHT22;1119;48.288;8.726;2022-09-28T10:35:59;10.60;99.90
2226;DHT22;1119;48.288;8.726;2022-09-28T10:38:28;10.60;99.90
2226;DHT22;1119;48.288;8.726;2022-09-28T10:41:08;10.60;99.90
2226;DHT22;1119;48.288;8.726;2022-09-28T10:43:55;10.60;99.90
2226;DHT22;1119;48.288;8.726;2022-09-28T10:46:54;10.60;99.90
2226;DHT22;1119;48.288;8.726;2022-09-28T10:49:23;10.60;99.90
2226;DHT22;1119;48.288;8.726;2022-09-28T10:51:55;10.50;99.90
2226;DHT22;1119;48.288;8.726;2022-09-28T10:54:27;10.50;99.90
2226;DHT22;1119;48.288;8.726;2022-09-28T10:56:59;10.50;99.90
2226;DHT22;1119;48.288;8.726;2022-09-28T10:59:41;10.50;99.90
2226;DHT22;1119;48.288;8.726;2022-09-28T11:02:33;10.60;99.90
2226;DHT22;1119;48.288;8.726;2022-09-28T11:05:06;10.70;99.90
2226;DHT22;1119;48.288;8.726;2022-09-28T11:07:46;10.80;99.90
2226;DHT22;1119;48.288;8.726;2022-09-28T11:10:20;10.90;99.90
2226;DHT22;1119;48.288;8.726;2022-09-28T11:12:51;10.90;99.90
2226;DHT22;1119;48.288;8.726;2022-09-28T11:15:28;10.90;99.90
2226;DHT22;1119;48.288;8.726;2022-09-28T11:18:17;10.90;99.90
2226;DHT22;1119;48.288;8.726;2022-09-28T11:20:48;10.90;99.90
2226;DHT22;1119;48.288;8.726;2022-09-28T11:23:19;10.80;99.90
2226;DHT22;1119;48.288;8.726;2022-09-28T11:25:57;10.80;99.90
2226;DHT22;1119;48.288;8.726;2022-09-28T11:28:29;10.80;99.90
2226;DHT22;1119;48.288;8.726;2022-09-28T11:31:02;10.90;99.90
2226;DHT22;1119;48.288;8.726;2022-09-28T11:33:45;11.00;99.90
2226;DHT22;1119;48.288;8.726;2022-09-28T11:36:46;11.00;99.90
2226;DHT22;1119;48.288;8.726;2022-09-28T11:39:27;10.90;99.90
2226;DHT22;1119;48.288;8.726;2022-09-28T11:42:06;10.90;99.90
2226;DHT22;1119;48.288;8.726;2022-09-28T11:44:42;10.90;99.90
2226;DHT22;1119;48.288;8.726;2022-09-28T11:47:36;10.80;99.90
2226;DHT22;1119;48.288;8.726;2022-09-28T11:50:26;10.80;99.90
2226;DHT22;1119;48.288;8.726;2022-09-28T11:53:10;10.80;99.90
2226;DHT22;1119;48.288;8.726;2022-09-28T11:55:45;10.90;99.90
2226;DHT22;1119;48.288;8.726;2022-09-28T11:58:23;10.90;99.90
2226;DHT22;1119;48.288;8.726;2022-09-28T12:01:03;10.90;99.90
2226;DHT22;1119;48.288;8.726;2022-09-28T12:04:04;10.90;99.90
2226;DHT22;1119;48.288;8.726;2022-09-28T12:06:43;11.00;99.90
2226;DHT22;1119;48.288;8.726;2022-09-28T12:09:30;11.10;99.90
2226;DHT22;1119;48.288;8.726;2022-09-28T12:12:19;11.10;99.90
2226;DHT22;1119;48.288;8.726;2022-09-28T12:15:04;11.00;99.90
2226;DHT22;1119;48.288;8.726;2022-09-28T12:17:45;11.00;99.90
2226;DHT22;1119;48.288;8.726;2022-09-28T12:20:25;11.00;99.90
2226;DHT22;1119;48.288;8.726;2022-09-28T12:23:03;11.10;99.90
2226;DHT22;1119;48.288;8.726;2022-09-28T12:25:43;11.10;99.90
2226;DHT22;1119;48.288;8.726;2022-09-28T12:28:24;11.20;99.90
2226;DHT22;1119;48.288;8.726;2022-09-28T12:31:09;11.10;99.90
2226;DHT22;1119;48.288;8.726;2022-09-28T12:33:50;11.20;99.90
2226;DHT22;1119;48.288;8.726;2022-09-28T12:36:34;11.10;99.90
2226;DHT22;1119;48.288;8.726;2022-09-28T12:39:33;11.20;99.90
2226;DHT22;1119;48.288;8.726;2022-09-28T12:42:23;11.20;99.90
2226;DHT22;1119;48.288;8.726;2022-09-28T12:45:26;11.10;99.90
2226;DHT22;1119;48.288;8.726;2022-09-28T12:48:36;11.10;99.90
2226;DHT22;1119;48.288;8.726;2022-09-28T12:51:27;11.10;99.90
2226;DHT22;1119;48.288;8.726;2022-09-28T12:54:17;11.20;99.90
2226;DHT22;1119;48.288;8.726;2022-09-28T12:57:01;11.20;99.90
2226;DHT22;1119;48.288;8.726;2022-09-28T12:59:38;11.20;99.90
2226;DHT22;1119;48.288;8.726;2022-09-28T13:02:29;11.10;99.90
2226;DHT22;1119;48.288;8.726;2022-09-28T13:05:30;11.10;99.90
2226;DHT22;1119;48.288;8.726;2022-09-28T13:08:43;11.10;99.90
2226;DHT22;1119;48.288;8.726;2022-09-28T13:11:20;11.00;99.90
2226;DHT22;1119;48.288;8.726;2022-09-28T13:14:08;11.00;99.90
2226;DHT22;1119;48.288;8.726;2022-09-28T13:16:55;11.00;99.90
2226;DHT22;1119;48.288;8.726;2022-09-28T13:19:31;11.00;99.90
2226;DHT22;1119;48.288;8.726;2022-09-28T13:22:21;11.00;99.90
2226;DHT22;1119;48.288;8.726;2022-09-28T13:25:00;11.10;99.90
2226;DHT22;1119;48.288;8.726;2022-09-28T13:27:33;11.10;99.90
2226;DHT22;1119;48.288;8.726;2022-09-28T13:30:03;11.10;99.90
2226;DHT22;1119;48.288;8.726;2022-09-28T13:32:33;11.10;99.90
2226;DHT22;1119;48.288;8.726;2022-09-28T13:35:02;11.00;99.90
2226;DHT22;1119;48.288;8.726;2022-09-28T13:37:30;11.00;99.90
2226;DHT22;1119;48.288;8.726;2022-09-28T13:40:00;11.00;99.90
2226;DHT22;1119;48.288;8.726;2022-09-28T13:42:51;11.00;99.90
2226;DHT22;1119;48.288;8.726;2022-09-28T13:48:23;10.90;99.90
2226;DHT22;1119;48.288;8.726;2022-09-28T13:54:04;10.70;99.90
2226;DHT22;1119;48.288;8.726;2022-09-28T13:56:45;10.60;99.90
2226;DHT22;1119;48.288;8.726;2022-09-28T13:59:20;10.60;99.90
2226;DHT22;1119;48.288;8.726;2022-09-28T14:01:52;10.60;99.90
2226;DHT22;1119;48.288;8.726;2022-09-28T14:04:23;10.60;99.90
2226;DHT22;1119;48.288;8.726;2022-09-28T14:06:53;10.50;99.90
2226;DHT22;1119;48.288;8.726;2022-09-28T14:09:38;10.50;99.90
2226;DHT22;1119;48.288;8.726;2022-09-28T14:12:43;10.50;99.90
2226;DHT22;1119;48.288;8.726;2022-09-28T14:18:21;10.40;99.90
2226;DHT22;1119;48.288;8.726;2022-09-28T14:21:06;10.30;99.90
2226;DHT22;1119;48.288;8.726;2022-09-28T14:24:01;10.30;99.90
2226;DHT22;1119;48.288;8.726;2022-09-28T14:26:57;10.20;99.90
2226;DHT22;1119;48.288;8.726;2022-09-28T14:29:35;10.20;99.90
2226;DHT22;1119;48.288;8.726;2022-09-28T14:32:13;10.20;99.90
2226;DHT22;1119;48.288;8.726;2022-09-28T14:34:55;10.20;99.90
2226;DHT22;1119;48.288;8.726;2022-09-28T14:37:26;10.20;99.90
2226;DHT22;1119;48.288;8.726;2022-09-28T14:40:17;10.30;99.90
2226;DHT22;1119;48.288;8.726;2022-09-28T14:43:26;10.20;99.90
2226;DHT22;1119;48.288;8.726;2022-09-28T14:46:35;10.20;99.90
2226;DHT22;1119;48.288;8.726;2022-09-28T14:49:41;10.20;99.90
2226;DHT22;1119;48.288;8.726;2022-09-28T14:52:18;10.20;99.90
2226;DHT22;1119;48.288;8.726;2022-09-28T14:55:12;10.10;99.90
2226;DHT22;1119;48.288;8.726;2022-09-28T14:57:41;10.10;99.90
2226;DHT22;1119;48.288;8.726;2022-09-28T15:00:15;10.20;99.90
2226;DHT22;1119;48.288;8.726;2022-09-28T15:02:49;10.20;99.90
2226;DHT22;1119;48.288;8.726;2022-09-28T15:05:21;10.20;99.90
2226;DHT22;1119;48.288;8.726;2022-09-28T15:07:50;10.30;99.90
2226;DHT22;1119;48.288;8.726;2022-09-28T15:10:25;10.30;99.90
2226;DHT22;1119;48.288;8.726;2022-09-28T15:12:56;10.30;99.90
2226;DHT22;1119;48.288;8.726;2022-09-28T15:15:30;10.30;99.90
2226;DHT22;1119;48.288;8.726;2022-09-28T15:18:15;10.30;99.90
2226;DHT22;1119;48.288;8.726;2022-09-28T15:20:53;10.30;99.90
2226;DHT22;1119;48.288;8.726;2022-09-28T15:23:32;10.40;99.90
2226;DHT22;1119;48.288;8.726;2022-09-28T15:26:01;10.30;99.90
2226;DHT22;1119;48.288;8.726;2022-09-28T15:28:33;10.20;99.90
2226;DHT22;1119;48.288;8.726;2022-09-28T15:31:02;10.20;99.90
2226;DHT22;1119;48.288;8.726;2022-09-28T15:33:32;10.20;99.90
2226;DHT22;1119;48.288;8.726;2022-09-28T15:36:20;10.20;99.90
2226;DHT22;1119;48.288;8.726;2022-09-28T15:38:54;10.10;99.90
2226;DHT22;1119;48.288;8.726;2022-09-28T15:41:23;10.10;99.90
2226;DHT22;1119;48.288;8.726;2022-09-28T15:44:05;10.00;99.90
2226;DHT22;1119;48.288;8.726;2022-09-28T15:46:35;10.00;99.90
2226;DHT22;1119;48.288;8.726;2022-09-28T15:49:05;10.10;99.90
2226;DHT22;1119;48.288;8.726;2022-09-28T15:51:46;10.00;99.90
2226;DHT22;1119;48.288;8.726;2022-09-28T15:54:20;10.00;99.90
2226;DHT22;1119;48.288;8.726;2022-09-28T15:56:51;10.00;99.90
2226;DHT22;1119;48.288;8.726;2022-09-28T15:59:25;9.90;99.90
2226;DHT22;1119;48.288;8.726;2022-09-28T16:02:02;9.80;99.90
2226;DHT22;1119;48.288;8.726;2022-09-28T16:04:39;9.80;99.90
2226;DHT22;1119;48.288;8.726;2022-09-28T16:07:24;9.80;99.90
2226;DHT22;1119;48.288;8.726;2022-09-28T16:09:56;9.80;99.90
2226;DHT22;1119;48.288;8.726;2022-09-28T16:12:28;9.80;99.90
2226;DHT22;1119;48.288;8.726;2022-09-28T16:15:05;9.80;99.90
2226;DHT22;1119;48.288;8.726;2022-09-28T16:17:36;9.70;99.90
2226;DHT22;1119;48.288;8.726;2022-09-28T16:20:25;9.70;99.90
2226;DHT22;1119;48.288;8.726;2022-09-28T16:22:55;9.70;99.90
2226;DHT22;1119;48.288;8.726;2022-09-28T16:25:28;9.60;99.90
2226;DHT22;1119;48.288;8.726;2022-09-28T16:27:55;9.60;99.90
2226;DHT22;1119;48.288;8.726;2022-09-28T16:30:23;9.60;99.90
2226;DHT22;1119;48.288;8.726;2022-09-28T16:32:55;9.50;99.90
2226;DHT22;1119;48.288;8.726;2022-09-28T16:35:26;9.50;99.90
2226;DHT22;1119;48.288;8.726;2022-09-28T16:38:05;9.40;99.90
2226;DHT22;1119;48.288;8.726;2022-09-28T16:40:39;9.30;99.90
2226;DHT22;1119;48.288;8.726;2022-09-28T16:43:12;9.30;99.90
2226;DHT22;1119;48.288;8.726;2022-09-28T16:45:44;9.30;99.90
2226;DHT22;1119;48.288;8.726;2022-09-28T16:48:13;9.20;99.90
2226;DHT22;1119;48.288;8.726;2022-09-28T16:50:45;9.30;99.90
2226;DHT22;1119;48.288;8.726;2022-09-28T16:53:14;9.20;99.90
2226;DHT22;1119;48.288;8.726;2022-09-28T16:56:00;9.20;99.90
2226;DHT22;1119;48.288;8.726;2022-09-28T16:58:29;9.20;99.90
2226;DHT22;1119;48.288;8.726;2022-09-28T17:00:58;9.10;99.90
2226;DHT22;1119;48.288;8.726;2022-09-28T17:03:26;9.20;99.90
2226;DHT22;1119;48.288;8.726;2022-09-28T17:05:55;9.20;99.90
2226;DHT22;1119;48.288;8.726;2022-09-28T17:08:23;9.20;99.90
2226;DHT22;1119;48.288;8.726;2022-09-28T17:10:52;9.20;99.90
2226;DHT22;1119;48.288;8.726;2022-09-28T17:13:21;9.20;99.90
2226;DHT22;1119;48.288;8.726;2022-09-28T17:15:51;9.20;99.90
2226;DHT22;1119;48.288;8.726;2022-09-28T17:18:18;9.30;99.90
2226;DHT22;1119;48.288;8.726;2022-09-28T17:20:47;9.30;99.90
2226;DHT22;1119;48.288;8.726;2022-09-28T17:23:18;9.30;99.90
2226;DHT22;1119;48.288;8.726;2022-09-28T17:25:46;9.40;99.90
2226;DHT22;1119;48.288;8.726;2022-09-28T17:28:18;9.40;99.90
2226;DHT22;1119;48.288;8.726;2022-09-28T17:30:46;9.50;99.90
2226;DHT22;1119;48.288;8.726;2022-09-28T17:33:13;9.40;99.90
2226;DHT22;1119;48.288;8.726;2022-09-28T17:35:41;9.40;99.90
2226;DHT22;1119;48.288;8.726;2022-09-28T17:38:10;9.40;99.90
2226;DHT22;1119;48.288;8.726;2022-09-28T17:40:39;9.30;99.90
2226;DHT22;1119;48.288;8.726;2022-09-28T17:43:07;9.30;99.90
2226;DHT22;1119;48.288;8.726;2022-09-28T17:45:35;9.30;99.90